La Palma, California
Current Conditions -  °F | °C
As of 3:53 PM on Wednesday 28 Jan 2015 (Local Time) from KFUL Reporting Station
Clear Clear  
Wind Chill: 73°   Ceiling: Unl
Heat Index: 73°   Visibility: 10mi
Dew Point: 47°   Wind: 0mph
Humidity: 39%   Direction: NA
Pressure: 30.05"   Gusts: NA
Location:  33.85°N, 118.03°W
Report Text: KFUL 282353Z 00000KT 10SM CLR 23/08 A3005 RMK AO2 SLP174 T02280083 10250 20200 50000
Loading
Personal Weather Stations






























Interactive Weather Map New forecast layout! Learn more

10-Day Weather Forecast

Advertisements
Track Severe Weather on mobile